createdAt,value
2018-11-03T00:01:56.160Z,25.10
2018-11-03T00:04:34.109Z,25.20
2018-11-03T00:07:11.413Z,25.20
2018-11-03T00:09:50.167Z,25.20
2018-11-03T00:12:30.173Z,25.20
2018-11-03T00:15:07.653Z,25.30
2018-11-03T00:17:45.148Z,25.30
2018-11-03T00:20:22.749Z,25.30
2018-11-03T00:23:01.782Z,25.40
2018-11-03T00:25:39.832Z,25.40
2018-11-03T00:28:16.754Z,25.50
2018-11-03T00:30:58.956Z,25.50
2018-11-03T00:33:37.096Z,25.50
2018-11-03T00:36:16.004Z,25.50
2018-11-03T00:38:54.927Z,25.50
2018-11-03T00:41:31.881Z,25.50
2018-11-03T00:44:09.709Z,25.50
2018-11-03T00:46:47.519Z,25.50
2018-11-03T00:49:26.142Z,25.60
2018-11-03T00:52:03.384Z,25.60
2018-11-03T00:54:40.413Z,25.60
2018-11-03T00:57:17.968Z,25.60
2018-11-03T00:59:55.781Z,25.60
2018-11-03T01:02:33.209Z,25.60
2018-11-03T01:05:11.275Z,25.70
2018-11-03T01:07:49.736Z,25.70
2018-11-03T01:10:26.995Z,25.70
2018-11-03T01:13:05.168Z,25.70
2018-11-03T01:15:43.674Z,25.80
2018-11-03T01:18:20.649Z,25.80
2018-11-03T01:20:58.548Z,25.70
2018-11-03T01:23:35.292Z,25.70
2018-11-03T01:26:13.326Z,25.70
2018-11-03T01:31:50.063Z,25.90
2018-11-03T01:34:35.060Z,24.40
2018-11-03T01:37:29.030Z,23.50
2018-11-03T01:40:22.720Z,22.90
2018-11-03T01:43:20.366Z,22.60
2018-11-03T02:19:31.995Z,21.60
2018-11-03T02:22:50.568Z,21.60
2018-11-03T02:39:34.746Z,21.80
2018-11-03T02:42:42.003Z,21.90
2018-11-03T02:45:54.105Z,22.10
2018-11-03T02:48:56.007Z,22.10
2018-11-03T02:51:57.754Z,22.20
2018-11-03T03:02:57.442Z,22.30
2018-11-03T03:12:04.031Z,22.40
2018-11-03T03:14:51.233Z,22.30
2018-11-03T03:17:37.351Z,22.40
2018-11-03T03:23:31.399Z,22.40
2018-11-03T03:26:34.191Z,22.50
2018-11-03T03:29:28.697Z,22.50
2018-11-03T03:35:33.401Z,22.60
2018-11-03T03:41:32.604Z,22.70
2018-11-03T03:44:18.312Z,22.60
2018-11-03T03:47:06.497Z,22.70
2018-11-03T03:56:00.381Z,22.90
2018-11-03T04:00:07.318Z,22.90
2018-11-03T04:03:01.690Z,23.00
2018-11-03T04:05:47.245Z,22.90
2018-11-03T04:09:10.934Z,23.00
2018-11-03T04:15:20.024Z,23.10
2018-11-03T04:21:03.982Z,23.10
2018-11-03T04:24:00.980Z,23.10
2018-11-03T04:26:52.460Z,23.10
2018-11-03T04:36:05.216Z,23.10
2018-11-03T04:45:05.239Z,23.10
2018-11-03T04:48:01.385Z,23.10
2018-11-03T04:59:11.709Z,23.20
2018-11-03T05:02:01.651Z,23.20
2018-11-03T05:05:09.153Z,23.20
2018-11-03T05:08:09.816Z,23.30
2018-11-03T05:10:58.789Z,23.20
2018-11-03T05:22:31.423Z,23.20
2018-11-03T05:25:16.064Z,23.20
2018-11-03T05:28:04.583Z,23.20
2018-11-03T05:30:43.706Z,23.30
2018-11-03T05:39:57.454Z,23.20
2018-11-03T05:43:19.835Z,23.20
2018-11-03T05:46:10.367Z,23.10
2018-11-03T05:49:06.129Z,23.20
2018-11-03T05:51:55.439Z,23.20
2018-11-03T05:54:38.496Z,23.10
2018-11-03T05:57:25.338Z,23.20
2018-11-03T06:00:04.811Z,23.20
2018-11-03T06:02:46.121Z,23.20
2018-11-03T06:05:52.846Z,23.10
2018-11-03T06:08:44.011Z,23.10
2018-11-03T06:11:39.842Z,23.00
2018-11-03T06:14:35.658Z,23.10
2018-11-03T06:17:32.289Z,23.00
2018-11-03T06:23:56.810Z,22.90
2018-11-03T06:26:49.509Z,22.90
2018-11-03T06:29:47.833Z,22.90
2018-11-03T06:32:34.791Z,22.90
2018-11-03T06:38:21.837Z,23.00
2018-11-03T06:41:23.496Z,23.00
2018-11-03T06:47:23.120Z,23.00
2018-11-03T06:50:23.698Z,22.90
2018-11-03T06:56:59.226Z,22.90
2018-11-03T06:59:51.098Z,22.90
2018-11-03T07:16:47.249Z,22.90
2018-11-03T07:25:25.583Z,22.90
2018-11-03T07:28:18.835Z,23.00
2018-11-03T07:38:17.519Z,22.80
2018-11-03T07:41:16.197Z,22.90
2018-11-03T07:47:08.162Z,22.80
2018-11-03T07:50:03.250Z,22.80
2018-11-03T07:55:57.007Z,22.80
2018-11-03T07:58:45.963Z,22.70
2018-11-03T08:01:44.083Z,22.70
2018-11-03T08:04:33.758Z,22.60
2018-11-03T08:07:24.847Z,22.60
2018-11-03T08:10:22.148Z,22.50
2018-11-03T08:13:19.237Z,22.50
2018-11-03T08:29:44.539Z,22.50
2018-11-03T08:32:35.757Z,22.40
2018-11-03T08:38:23.452Z,22.40
2018-11-03T08:50:37.762Z,22.30
2018-11-03T08:53:30.714Z,22.20
2018-11-03T08:59:22.850Z,22.40
2018-11-03T09:02:23.659Z,22.40
2018-11-03T09:08:38.304Z,22.30
2018-11-03T09:17:52.482Z,22.30
2018-11-03T09:29:15.427Z,22.40
2018-11-03T09:32:07.558Z,22.40
2018-11-03T09:42:59.078Z,22.20
2018-11-03T10:16:06.853Z,22.00
2018-11-03T10:19:55.129Z,22.00
2018-11-03T11:32:42.908Z,22.20
2018-11-03T11:35:23.102Z,22.10
2018-11-03T11:38:02.434Z,22.10
2018-11-03T11:40:41.595Z,22.10
2018-11-03T11:43:22.668Z,22.10
2018-11-03T11:46:00.520Z,22.00
2018-11-03T11:48:38.105Z,22.00
2018-11-03T11:51:16.935Z,22.20
2018-11-03T11:53:55.148Z,22.10
2018-11-03T11:56:37.335Z,22.10
2018-11-03T11:59:17.795Z,22.10
2018-11-03T12:01:58.190Z,22.10
2018-11-03T12:04:45.604Z,22.10
2018-11-03T12:07:35.929Z,22.00
2018-11-03T12:10:14.459Z,22.00
2018-11-03T12:13:00.206Z,22.10
2018-11-03T12:15:38.354Z,22.00
2018-11-03T12:18:15.686Z,22.00
2018-11-03T12:20:54.871Z,22.00
2018-11-03T12:23:33.697Z,22.10
2018-11-03T12:26:12.004Z,22.10
2018-11-03T12:28:53.598Z,22.10
2018-11-03T12:31:32.698Z,22.10
2018-11-03T12:34:11.915Z,22.10
2018-11-03T12:36:50.446Z,22.10
2018-11-03T12:39:28.773Z,22.10
2018-11-03T12:42:10.122Z,22.10
2018-11-03T12:44:51.297Z,22.00
2018-11-03T12:47:29.139Z,22.00
2018-11-03T12:50:07.450Z,22.00
2018-11-03T12:52:44.995Z,22.10
2018-11-03T12:55:26.338Z,22.00
2018-11-03T12:58:05.222Z,22.10
2018-11-03T13:00:43.349Z,22.10
2018-11-03T13:03:21.488Z,22.00
2018-11-03T13:06:02.624Z,22.00
2018-11-03T13:08:44.097Z,21.90
2018-11-03T13:11:24.670Z,22.00
2018-11-03T13:14:04.024Z,22.00
2018-11-03T13:16:42.013Z,21.90
2018-11-03T13:19:21.355Z,22.00
2018-11-03T13:21:58.990Z,21.90
2018-11-03T13:24:41.372Z,21.90
2018-11-03T13:27:19.031Z,21.90
2018-11-03T13:29:57.072Z,21.90
2018-11-03T13:32:35.400Z,22.00
2018-11-03T13:35:16.141Z,22.00
2018-11-03T13:37:57.756Z,22.00
2018-11-03T13:40:35.263Z,22.00
2018-11-03T13:43:14.164Z,22.00
2018-11-03T13:45:56.552Z,22.10
2018-11-03T13:48:34.717Z,22.00
2018-11-03T13:51:23.055Z,22.00
2018-11-03T13:54:06.354Z,22.00
2018-11-03T13:56:48.279Z,22.00
2018-11-03T13:59:30.036Z,21.90
2018-11-03T14:02:08.508Z,21.90
2018-11-03T14:04:50.071Z,21.90
2018-11-03T14:07:31.423Z,21.80
2018-11-03T14:10:16.590Z,21.80
2018-11-03T14:12:56.792Z,21.80
2018-11-03T14:15:37.292Z,21.80
2018-11-03T14:18:18.425Z,21.80
2018-11-03T14:21:01.847Z,21.80
2018-11-03T14:23:40.539Z,21.80
2018-11-03T14:26:18.636Z,21.80
2018-11-03T14:28:58.092Z,21.80
2018-11-03T14:31:36.234Z,21.80
2018-11-03T14:34:16.795Z,21.80
2018-11-03T14:37:00.295Z,21.80
2018-11-03T14:39:42.636Z,21.80
2018-11-03T14:42:21.301Z,21.80
2018-11-03T14:45:05.689Z,21.80
2018-11-03T14:47:48.611Z,21.70
2018-11-03T14:50:35.253Z,21.80
2018-11-03T14:53:20.534Z,21.70
2018-11-03T14:56:04.572Z,21.70
2018-11-03T14:58:56.511Z,21.70
2018-11-03T15:01:41.154Z,21.80
2018-11-03T15:04:21.426Z,21.70
2018-11-03T15:07:07.900Z,21.70
2018-11-03T15:09:51.238Z,21.70
2018-11-03T15:12:40.945Z,21.70
2018-11-03T15:15:30.619Z,21.70
2018-11-03T15:18:15.284Z,21.70
2018-11-03T15:21:01.965Z,21.70
2018-11-03T15:23:45.893Z,21.70
2018-11-03T15:26:27.047Z,21.60
2018-11-03T15:29:06.938Z,21.70
2018-11-03T15:31:46.989Z,21.60
2018-11-03T15:34:30.966Z,21.60
2018-11-03T15:37:13.560Z,21.50
2018-11-03T15:39:55.307Z,21.50
2018-11-03T15:42:38.125Z,21.50
2018-11-03T15:45:20.098Z,21.50
2018-11-03T15:48:02.709Z,21.50
2018-11-03T15:50:55.396Z,21.50
2018-11-03T15:53:33.757Z,21.50
2018-11-03T15:56:10.966Z,21.50
2018-11-03T15:58:49.516Z,21.50
2018-11-03T16:01:32.290Z,21.50
2018-11-03T16:04:12.095Z,21.50
2018-11-03T16:06:50.286Z,21.50
2018-11-03T16:09:28.333Z,21.50
2018-11-03T16:12:06.699Z,21.50
2018-11-03T16:14:44.420Z,21.50
2018-11-03T16:17:22.699Z,21.50
2018-11-03T16:20:04.516Z,21.50
2018-11-03T16:22:47.969Z,21.60
2018-11-03T16:25:29.046Z,21.60
2018-11-03T16:28:07.617Z,21.60
2018-11-03T16:30:47.206Z,21.50
2018-11-03T16:33:24.624Z,21.50
2018-11-03T16:36:02.413Z,21.50
2018-11-03T16:38:41.703Z,21.50
2018-11-03T16:41:20.727Z,21.50
2018-11-03T16:43:59.517Z,21.50
2018-11-03T16:49:43.148Z,21.50
2018-11-03T16:52:22.022Z,21.40
2018-11-03T16:55:01.063Z,21.50
2018-11-03T16:57:40.956Z,21.50
2018-11-03T17:00:20.787Z,21.50
2018-11-03T17:03:00.932Z,21.50
2018-11-03T17:05:42.106Z,21.50
2018-11-03T17:08:19.200Z,21.50
2018-11-03T17:10:56.972Z,21.40
2018-11-03T17:13:34.071Z,21.40
2018-11-03T17:16:13.212Z,21.40
2018-11-03T17:18:51.043Z,21.40
2018-11-03T17:21:29.614Z,21.40
2018-11-03T17:24:07.864Z,21.40
2018-11-03T17:26:45.517Z,21.40
2018-11-03T17:29:23.678Z,21.40
2018-11-03T17:32:00.947Z,21.40
2018-11-03T17:34:39.581Z,21.40
2018-11-03T17:37:17.423Z,21.40
2018-11-03T17:39:54.513Z,21.50
2018-11-03T17:42:32.139Z,21.50
2018-11-03T17:45:09.258Z,21.50
2018-11-03T17:47:46.038Z,21.40
2018-11-03T17:50:23.375Z,21.40
2018-11-03T17:53:00.951Z,21.40
2018-11-03T17:55:38.611Z,21.40
2018-11-03T17:58:15.620Z,21.40
2018-11-03T18:00:55.575Z,21.40
2018-11-03T18:03:32.754Z,21.40
2018-11-03T18:06:10.673Z,21.40
2018-11-03T18:08:50.950Z,21.40
2018-11-03T18:11:27.969Z,21.40
2018-11-03T18:14:05.109Z,21.40
2018-11-03T18:16:42.039Z,21.40
2018-11-03T18:19:19.544Z,21.40
2018-11-03T18:21:56.220Z,21.40
2018-11-03T18:24:33.432Z,21.40
2018-11-03T18:27:11.076Z,21.40
2018-11-03T18:29:48.668Z,21.40
2018-11-03T18:32:24.984Z,21.40
2018-11-03T18:35:02.385Z,21.40
2018-11-03T18:37:39.026Z,21.40
2018-11-03T18:40:16.163Z,21.40
2018-11-03T18:42:53.740Z,21.40
2018-11-03T18:45:30.026Z,21.40
2018-11-03T18:48:07.044Z,21.40
2018-11-03T18:50:44.458Z,21.30
2018-11-03T18:53:20.936Z,21.30
2018-11-03T18:55:57.592Z,21.30
2018-11-03T18:58:34.574Z,21.30
2018-11-03T19:01:10.750Z,21.30
2018-11-03T19:03:47.794Z,21.30
2018-11-03T19:06:25.283Z,21.30
2018-11-03T19:09:02.178Z,21.30
2018-11-03T19:11:39.397Z,21.30
2018-11-03T19:14:15.741Z,21.30
2018-11-03T19:16:52.457Z,21.20
2018-11-03T19:19:29.621Z,21.20
2018-11-03T19:22:05.906Z,21.20
2018-11-03T19:24:42.383Z,21.20
2018-11-03T19:27:19.569Z,21.20
2018-11-03T19:29:56.471Z,21.20
2018-11-03T19:32:34.126Z,21.20
2018-11-03T19:35:11.446Z,21.20
2018-11-03T19:37:48.581Z,21.20
2018-11-03T19:40:25.496Z,21.20
2018-11-03T19:43:03.118Z,21.20
2018-11-03T19:45:40.440Z,21.10
2018-11-03T19:48:16.688Z,21.20
2018-11-03T19:50:53.454Z,21.20
2018-11-03T19:53:29.927Z,21.20
2018-11-03T19:56:07.354Z,21.10
2018-11-03T19:58:44.798Z,21.10
2018-11-03T20:01:21.345Z,21.10
2018-11-03T20:03:59.607Z,21.10
2018-11-03T20:06:36.007Z,21.10
2018-11-03T20:09:14.383Z,21.10
2018-11-03T20:11:53.340Z,21.10
2018-11-03T20:14:30.767Z,21.10
2018-11-03T20:17:07.369Z,21.10
2018-11-03T20:19:44.234Z,21.00
2018-11-03T20:22:21.393Z,21.00
2018-11-03T20:24:57.672Z,21.10
2018-11-03T20:27:34.519Z,21.00
2018-11-03T20:30:13.812Z,21.00
2018-11-03T20:32:52.002Z,21.00
2018-11-03T20:35:28.941Z,21.00
2018-11-03T20:38:06.554Z,21.00
2018-11-03T20:40:43.752Z,20.90
2018-11-03T20:43:20.425Z,20.90
2018-11-03T20:45:56.769Z,20.90
2018-11-03T20:48:33.782Z,20.90
2018-11-03T20:51:11.712Z,20.90
2018-11-03T20:53:48.126Z,20.80
2018-11-03T20:56:24.337Z,20.80
2018-11-03T20:59:00.906Z,20.80
2018-11-03T21:01:37.711Z,20.80
2018-11-03T21:04:13.931Z,20.80
2018-11-03T21:06:51.277Z,20.80
2018-11-03T21:09:27.569Z,20.70
2018-11-03T21:12:03.615Z,20.70
2018-11-03T21:14:40.814Z,20.80
2018-11-03T21:17:18.315Z,20.70
2018-11-03T21:19:55.094Z,20.70
2018-11-03T21:22:32.951Z,20.70
2018-11-03T21:25:09.667Z,20.70
2018-11-03T21:27:45.906Z,20.70
2018-11-03T21:30:22.439Z,20.80
2018-11-03T21:32:59.089Z,20.80
2018-11-03T21:35:35.314Z,20.80
2018-11-03T21:38:11.983Z,20.80
2018-11-03T21:40:48.488Z,20.80
2018-11-03T21:43:25.285Z,20.70
2018-11-03T21:46:02.445Z,20.80
2018-11-03T21:48:39.229Z,20.80
2018-11-03T21:51:18.279Z,20.70
2018-11-03T21:53:55.459Z,20.70
2018-11-03T21:56:32.006Z,20.80
2018-11-03T21:59:08.571Z,20.70
2018-11-03T22:01:46.418Z,20.70
2018-11-03T22:04:23.079Z,20.70
2018-11-03T22:07:00.223Z,20.70
2018-11-03T22:09:37.128Z,20.70
2018-11-03T22:12:14.474Z,20.70
2018-11-03T22:14:51.921Z,20.70
2018-11-03T22:17:29.055Z,20.70
2018-11-03T22:20:05.923Z,20.70
2018-11-03T22:22:43.854Z,20.70
2018-11-03T22:25:20.890Z,20.70
2018-11-03T22:27:58.324Z,20.70
2018-11-03T22:30:35.505Z,20.70
2018-11-03T22:33:12.603Z,20.60
2018-11-03T22:35:49.138Z,20.70
2018-11-03T22:38:26.876Z,20.70
2018-11-03T22:41:03.617Z,20.70
2018-11-03T22:43:40.456Z,20.70
2018-11-03T22:46:17.134Z,20.90
2018-11-03T22:48:55.667Z,21.00
2018-11-03T22:51:34.893Z,21.00
2018-11-03T22:54:12.038Z,20.80
2018-11-03T22:56:48.616Z,20.90
2018-11-03T22:59:38.412Z,21.00
